createdAt,value
2017-11-12T00:01:35.050Z,3.31
2017-11-12T00:02:35.088Z,3.32
2017-11-12T00:04:28.062Z,3.26
2017-11-12T00:05:28.120Z,3.18
2017-11-12T00:07:21.119Z,3.19
2017-11-12T00:08:21.182Z,3.21
2017-11-12T00:10:14.160Z,3.18
2017-11-12T00:11:14.196Z,3.21
2017-11-12T00:13:07.177Z,3.16
2017-11-12T00:14:07.240Z,3.18
2017-11-12T00:16:00.228Z,3.23
2017-11-12T00:17:00.262Z,3.11
2017-11-12T00:18:53.244Z,3.11
2017-11-12T00:19:53.290Z,3.14
2017-11-12T00:21:46.290Z,3.22
2017-11-12T00:22:46.328Z,3.07
2017-11-12T00:24:39.309Z,3.23
2017-11-12T00:25:39.362Z,3.18
2017-11-12T00:27:32.373Z,3.10
2017-11-12T00:28:32.394Z,3.11
2017-11-12T00:30:25.392Z,3.11
2017-11-12T00:31:25.427Z,3.19
2017-11-12T00:33:18.410Z,3.18
2017-11-12T00:34:18.466Z,3.11
2017-11-12T00:36:11.970Z,3.10
2017-11-12T00:37:12.006Z,3.22
2017-11-12T00:39:04.987Z,3.10
2017-11-12T00:40:05.041Z,3.13
2017-11-12T00:41:58.038Z,3.14
2017-11-12T00:42:58.072Z,3.25
2017-11-12T00:44:51.048Z,3.13
2017-11-12T00:45:51.106Z,3.08
2017-11-12T00:47:44.097Z,3.03
2017-11-12T00:48:44.134Z,2.98
2017-11-12T00:50:37.129Z,3.11
2017-11-12T00:51:37.166Z,3.07
2017-11-12T00:53:30.147Z,3.04
2017-11-12T00:54:30.197Z,3.01
2017-11-12T00:56:23.198Z,2.85
2017-11-12T00:57:23.235Z,2.90
2017-11-12T00:59:16.219Z,2.83
2017-11-12T01:00:16.272Z,2.82
2017-11-12T01:02:09.265Z,2.80
2017-11-12T01:03:09.302Z,2.86
2017-11-12T01:05:02.285Z,2.92
2017-11-12T01:06:02.335Z,2.97
2017-11-12T01:07:55.336Z,2.86
2017-11-12T01:08:55.372Z,2.97
2017-11-12T01:10:48.362Z,2.89
2017-11-12T01:11:48.404Z,2.86
2017-11-12T01:13:41.382Z,2.89
2017-11-12T01:14:41.429Z,2.80
2017-11-12T01:16:34.426Z,2.71
2017-11-12T01:17:34.460Z,2.71
2017-11-12T01:19:27.438Z,2.77
2017-11-12T01:20:27.511Z,2.64
2017-11-12T01:22:20.490Z,2.68
2017-11-12T01:23:20.524Z,2.62
2017-11-12T01:25:13.503Z,2.50
2017-11-12T01:26:13.556Z,2.60
2017-11-12T01:28:06.552Z,2.50
2017-11-12T01:29:06.585Z,2.57
2017-11-12T01:30:59.581Z,2.65
2017-11-12T01:31:59.623Z,2.64
2017-11-12T01:33:52.591Z,2.53
2017-11-12T01:34:52.645Z,2.56
2017-11-12T01:36:47.157Z,2.61
2017-11-12T01:37:47.188Z,2.67
2017-11-12T01:39:40.164Z,2.64
2017-11-12T01:40:40.220Z,2.61
2017-11-12T01:42:33.219Z,2.56
2017-11-12T01:43:33.254Z,2.53
2017-11-12T01:45:26.234Z,2.62
2017-11-12T01:46:26.293Z,2.51
2017-11-12T01:48:19.287Z,2.64
2017-11-12T01:49:19.319Z,2.61
2017-11-12T01:51:12.320Z,2.60
2017-11-12T01:52:12.350Z,2.51
2017-11-12T01:54:05.324Z,2.60
2017-11-12T01:55:05.381Z,2.56
2017-11-12T01:56:58.395Z,2.60
2017-11-12T01:57:58.412Z,2.56
2017-11-12T01:59:51.394Z,2.68
2017-11-12T02:00:51.447Z,2.67
2017-11-12T02:02:44.440Z,2.62
2017-11-12T02:03:44.476Z,2.67
2017-11-12T02:05:37.449Z,2.60
2017-11-12T02:06:37.507Z,2.64
2017-11-12T02:08:30.502Z,2.64
2017-11-12T02:09:30.542Z,2.67
2017-11-12T02:11:23.538Z,2.68
2017-11-12T02:12:23.568Z,2.69
2017-11-12T02:14:16.548Z,2.56
2017-11-12T02:15:16.596Z,2.67
2017-11-12T02:17:09.596Z,2.72
2017-11-12T02:18:09.628Z,2.72
2017-11-12T02:20:02.612Z,2.56
2017-11-12T02:21:02.661Z,2.62
2017-11-12T02:22:55.656Z,2.71
2017-11-12T02:23:55.692Z,2.65
2017-11-12T02:25:48.672Z,2.67
2017-11-12T02:26:48.721Z,2.67
2017-11-12T02:28:41.715Z,2.62
2017-11-12T02:29:41.753Z,2.72
2017-11-12T02:31:34.752Z,2.71
2017-11-12T02:32:34.786Z,2.67
2017-11-12T02:34:27.757Z,2.67
2017-11-12T02:35:27.814Z,2.68
2017-11-12T02:37:20.815Z,2.68
2017-11-12T02:38:20.852Z,2.74
2017-11-12T02:40:13.832Z,2.74
2017-11-12T02:41:13.883Z,2.85
2017-11-12T02:43:06.885Z,2.72
2017-11-12T02:44:06.919Z,2.64
2017-11-12T02:45:59.896Z,2.67
2017-11-12T02:46:59.950Z,2.65
2017-11-12T02:48:52.946Z,2.72
2017-11-12T02:49:52.978Z,2.68
2017-11-12T02:51:45.975Z,2.68
2017-11-12T02:52:46.010Z,2.65
2017-11-12T02:54:38.992Z,2.68
2017-11-12T02:55:39.046Z,2.67
2017-11-12T02:57:32.048Z,2.71
2017-11-12T02:58:32.079Z,2.64
2017-11-12T03:00:25.053Z,2.60
2017-11-12T03:01:25.109Z,2.67
2017-11-12T03:03:18.106Z,2.71
2017-11-12T03:04:18.140Z,2.72
2017-11-12T03:06:11.124Z,2.72
2017-11-12T03:07:11.174Z,2.90
2017-11-12T03:09:04.171Z,2.87
2017-11-12T03:10:04.209Z,2.80
2017-11-12T03:11:57.702Z,2.71
2017-11-12T03:12:57.739Z,2.69
2017-11-12T03:14:50.713Z,2.71
2017-11-12T03:15:50.768Z,2.62
2017-11-12T03:17:43.762Z,2.56
2017-11-12T03:18:43.800Z,2.56
2017-11-12T03:20:36.778Z,2.68
2017-11-12T03:21:36.830Z,2.67
2017-11-12T03:23:29.836Z,2.67
2017-11-12T03:24:29.890Z,2.64
2017-11-12T03:26:22.856Z,2.62
2017-11-12T03:27:22.912Z,2.61
2017-11-12T03:29:15.909Z,2.56
2017-11-12T03:30:15.943Z,2.49
2017-11-12T03:32:08.942Z,2.50
2017-11-12T03:33:08.978Z,2.46
2017-11-12T03:35:01.946Z,2.54
2017-11-12T03:36:02.003Z,2.53
2017-11-12T03:37:54.998Z,2.54
2017-11-12T03:38:55.032Z,2.51
2017-11-12T03:40:48.014Z,2.53
2017-11-12T03:41:48.065Z,2.54
2017-11-12T03:43:41.062Z,2.60
2017-11-12T03:44:41.094Z,2.53
2017-11-12T03:46:34.069Z,2.64
2017-11-12T03:47:34.133Z,2.82
2017-11-12T03:49:27.120Z,2.87
2017-11-12T03:50:27.156Z,2.92
2017-11-12T03:52:20.197Z,2.83
2017-11-12T03:53:20.187Z,2.85
2017-11-12T03:55:13.161Z,2.77
2017-11-12T03:56:13.217Z,2.85
2017-11-12T03:58:06.214Z,2.85
2017-11-12T03:59:06.247Z,2.75
2017-11-12T04:00:59.229Z,2.77
2017-11-12T04:01:59.284Z,2.72
2017-11-12T04:03:52.280Z,2.68
2017-11-12T04:04:52.315Z,2.71
2017-11-12T04:06:45.292Z,2.71
2017-11-12T04:07:45.346Z,2.72
2017-11-12T04:09:38.339Z,2.79
2017-11-12T04:10:38.374Z,2.80
2017-11-12T04:12:31.370Z,2.82
2017-11-12T04:13:31.407Z,2.87
2017-11-12T04:15:24.389Z,2.83
2017-11-12T04:16:24.442Z,2.83
2017-11-12T04:18:17.433Z,2.79
2017-11-12T04:19:17.468Z,2.77
2017-11-12T04:21:10.449Z,2.80
2017-11-12T04:22:10.505Z,2.80
2017-11-12T04:24:03.504Z,2.75
2017-11-12T04:25:03.539Z,2.69
2017-11-12T04:26:56.520Z,2.85
2017-11-12T04:27:56.573Z,2.77
2017-11-12T04:29:49.567Z,2.82
2017-11-12T04:30:49.602Z,2.83
2017-11-12T04:32:42.598Z,2.77
2017-11-12T04:33:42.632Z,2.83
2017-11-12T04:35:35.608Z,2.86
2017-11-12T04:36:35.664Z,2.87
2017-11-12T04:38:28.669Z,2.89
2017-11-12T04:39:28.701Z,2.97
2017-11-12T04:41:21.676Z,2.87
2017-11-12T04:42:21.731Z,2.98
2017-11-12T04:44:14.726Z,3.03
2017-11-12T04:45:14.763Z,3.08
2017-11-12T04:47:07.739Z,3.10
2017-11-12T04:48:07.793Z,3.11
2017-11-12T04:50:00.789Z,3.10
2017-11-12T04:51:00.832Z,3.13
2017-11-12T04:52:53.823Z,3.10
2017-11-12T04:53:53.860Z,3.14
2017-11-12T04:55:46.840Z,3.14
2017-11-12T04:56:46.896Z,3.04
2017-11-12T04:58:39.905Z,3.16
2017-11-12T04:59:39.952Z,3.03
2017-11-12T05:01:32.924Z,3.08
2017-11-12T05:02:32.978Z,3.10
2017-11-12T05:04:26.015Z,3.08
2017-11-12T05:05:26.017Z,3.04
2017-11-12T05:07:18.999Z,3.21
2017-11-12T05:08:19.053Z,3.21
2017-11-12T05:10:12.047Z,3.23
2017-11-12T05:11:12.083Z,3.21
2017-11-12T05:13:05.087Z,3.18
2017-11-12T05:14:05.123Z,3.28
2017-11-12T05:15:58.104Z,3.22
2017-11-12T05:16:58.166Z,3.28
2017-11-12T05:18:51.157Z,3.28
2017-11-12T05:19:51.221Z,3.32
2017-11-12T05:21:44.175Z,3.36
2017-11-12T05:22:44.224Z,3.34
2017-11-12T05:24:37.219Z,3.36
2017-11-12T05:25:37.262Z,3.37
2017-11-12T05:27:30.228Z,3.28
2017-11-12T05:28:30.290Z,3.25
2017-11-12T05:30:23.292Z,3.47
2017-11-12T05:31:23.322Z,3.44
2017-11-12T05:33:16.309Z,3.45
2017-11-12T05:34:16.346Z,3.50
2017-11-12T05:36:09.322Z,3.45
2017-11-12T05:37:09.505Z,3.42
2017-11-12T05:39:02.462Z,3.48
2017-11-12T05:40:02.530Z,3.59
2017-11-12T05:41:55.475Z,3.55
2017-11-12T05:42:55.564Z,3.62
2017-11-12T05:44:48.575Z,3.58
2017-11-12T05:45:48.560Z,3.65
2017-11-12T05:47:41.541Z,3.60
2017-11-12T05:48:41.574Z,3.66
2017-11-12T05:50:34.648Z,3.69
2017-11-12T05:51:34.630Z,3.76
2017-11-12T05:53:27.711Z,3.83
2017-11-12T05:54:27.673Z,3.83
2017-11-12T05:56:20.660Z,3.78
2017-11-12T05:57:20.701Z,3.84
2017-11-12T05:59:13.765Z,3.81
2017-11-12T06:00:13.736Z,3.83
2017-11-12T06:02:06.742Z,3.95
2017-11-12T06:03:06.800Z,3.91
2017-11-12T06:04:59.852Z,3.94
2017-11-12T06:05:59.850Z,3.95
2017-11-12T06:07:52.898Z,3.94
2017-11-12T06:08:52.924Z,3.92
2017-11-12T06:10:45.973Z,3.99
2017-11-12T06:11:45.961Z,4.05
2017-11-12T06:13:38.991Z,4.05
2017-11-12T06:14:39.128Z,4.10
2017-11-12T06:16:31.985Z,4.02
2017-11-12T06:17:32.103Z,4.10
2017-11-12T06:19:25.128Z,4.10
2017-11-12T06:20:25.089Z,4.06
2017-11-12T06:22:18.103Z,4.04
2017-11-12T06:23:18.130Z,4.20
2017-11-12T06:25:11.749Z,4.14
2017-11-12T06:26:11.680Z,4.14
2017-11-12T06:28:04.672Z,4.06
2017-11-12T06:29:04.747Z,4.08
2017-11-12T06:30:57.752Z,4.12
2017-11-12T06:31:57.765Z,4.16
2017-11-12T06:33:50.967Z,4.17
2017-11-12T06:34:50.879Z,4.24
2017-11-12T06:36:43.907Z,4.13
2017-11-12T06:37:43.967Z,4.12
2017-11-12T06:39:37.058Z,4.14
2017-11-12T06:40:37.018Z,4.19
2017-11-12T06:42:29.992Z,4.17
2017-11-12T06:43:30.029Z,4.16
2017-11-12T06:45:23.048Z,4.32
2017-11-12T06:46:23.082Z,4.24
2017-11-12T06:48:16.054Z,4.28
2017-11-12T06:49:16.113Z,4.26
2017-11-12T06:51:09.106Z,4.38
2017-11-12T06:52:09.143Z,4.32
2017-11-12T06:54:02.136Z,4.28
2017-11-12T06:55:02.173Z,4.24
2017-11-12T06:56:55.148Z,4.44
2017-11-12T06:57:55.611Z,4.35
2017-11-12T06:59:48.553Z,4.44
2017-11-12T07:00:48.519Z,4.35
2017-11-12T07:02:42.200Z,4.49
2017-11-12T07:03:41.472Z,4.42
2017-11-12T07:05:34.387Z,4.48
2017-11-12T07:06:34.428Z,4.44
2017-11-12T07:08:27.397Z,4.53
2017-11-12T07:09:27.453Z,4.58
2017-11-12T07:11:20.448Z,4.58
2017-11-12T07:12:20.483Z,4.60
2017-11-12T07:14:13.491Z,4.59
2017-11-12T07:15:13.523Z,4.66
2017-11-12T07:17:06.506Z,4.63
2017-11-12T07:18:06.568Z,4.63
2017-11-12T07:19:59.553Z,4.68
2017-11-12T07:20:59.593Z,4.71
2017-11-12T07:22:52.561Z,4.68
2017-11-12T07:23:52.617Z,4.63
2017-11-12T07:25:48.123Z,4.84
2017-11-12T07:26:48.157Z,4.78
2017-11-12T07:28:41.132Z,4.89
2017-11-12T07:29:41.187Z,4.92
2017-11-12T07:31:34.190Z,4.94
2017-11-12T07:32:34.229Z,4.93
2017-11-12T07:34:27.229Z,4.92
2017-11-12T07:35:27.267Z,4.90
2017-11-12T07:37:20.243Z,4.97
2017-11-12T07:38:20.299Z,4.94
2017-11-12T07:40:13.294Z,4.93
2017-11-12T07:41:13.330Z,4.99
2017-11-12T07:43:06.334Z,4.99
2017-11-12T07:44:06.372Z,4.97
2017-11-12T07:45:59.379Z,5.05
2017-11-12T07:46:59.421Z,5.10
2017-11-12T07:48:52.399Z,5.08
2017-11-12T07:49:52.451Z,5.07
2017-11-12T07:51:45.499Z,5.25
2017-11-12T07:52:45.483Z,5.21
2017-11-12T07:54:38.481Z,5.32
2017-11-12T07:55:38.515Z,5.36
2017-11-12T07:57:31.493Z,5.30
2017-11-12T07:58:31.551Z,5.30
2017-11-12T08:00:24.552Z,5.38
2017-11-12T08:01:24.589Z,5.43
2017-11-12T08:03:17.564Z,5.41
2017-11-12T08:04:17.621Z,5.38
2017-11-12T08:06:10.620Z,5.47
2017-11-12T08:07:10.653Z,5.51
2017-11-12T08:09:03.628Z,5.53
2017-11-12T08:10:03.688Z,5.48
2017-11-12T08:11:56.679Z,5.46
2017-11-12T08:12:56.714Z,5.53
2017-11-12T08:14:49.714Z,5.54
2017-11-12T08:15:49.749Z,5.56
2017-11-12T08:17:42.731Z,5.62
2017-11-12T08:18:42.929Z,5.62
2017-11-12T08:20:35.774Z,5.68
2017-11-12T08:21:35.812Z,5.62
2017-11-12T08:23:28.801Z,5.66
2017-11-12T08:24:28.845Z,5.65
2017-11-12T08:26:21.838Z,5.72
2017-11-12T08:27:21.897Z,5.75
2017-11-12T08:29:14.856Z,5.73
2017-11-12T08:30:14.907Z,5.76
2017-11-12T08:32:07.906Z,5.80
2017-11-12T08:33:07.943Z,5.82
2017-11-12T08:35:00.941Z,5.83
2017-11-12T08:36:00.978Z,5.80
2017-11-12T08:37:53.952Z,5.87
2017-11-12T08:38:54.026Z,5.79
2017-11-12T08:40:47.008Z,5.90
2017-11-12T08:41:47.045Z,5.84
2017-11-12T08:43:40.537Z,5.84
2017-11-12T08:44:40.586Z,5.84
2017-11-12T08:46:33.592Z,5.86
2017-11-12T08:47:33.636Z,5.87
2017-11-12T08:49:26.606Z,5.86
2017-11-12T08:50:26.664Z,5.89
2017-11-12T08:52:19.660Z,5.87
2017-11-12T08:53:19.698Z,5.98
2017-11-12T08:55:12.693Z,5.91
2017-11-12T08:56:12.729Z,5.98
2017-11-12T08:58:05.717Z,5.94
2017-11-12T08:59:05.779Z,5.94
2017-11-12T09:00:58.771Z,6.02
2017-11-12T09:01:58.807Z,6.09
2017-11-12T09:03:51.798Z,6.12
2017-11-12T09:04:51.853Z,6.12
2017-11-12T09:06:44.852Z,6.11
2017-11-12T09:07:44.888Z,6.17
2017-11-12T09:09:37.866Z,6.14
2017-11-12T09:10:37.920Z,6.16
2017-11-12T09:12:30.967Z,6.22
2017-11-12T09:13:30.956Z,6.22
2017-11-12T09:15:23.948Z,6.22
2017-11-12T09:16:24.012Z,6.24
2017-11-12T09:18:16.961Z,6.26
2017-11-12T09:19:17.021Z,6.27
2017-11-12T09:21:10.017Z,6.28
2017-11-12T09:22:10.051Z,6.22
2017-11-12T09:24:03.030Z,6.30
2017-11-12T09:25:03.095Z,6.30
2017-11-12T09:26:56.091Z,6.31
2017-11-12T09:27:56.126Z,6.31
2017-11-12T09:29:49.140Z,6.38
2017-11-12T09:30:49.172Z,6.27
2017-11-12T09:32:42.171Z,6.38
2017-11-12T09:33:42.213Z,6.30
2017-11-12T09:35:35.207Z,6.31
2017-11-12T09:36:35.242Z,6.36
2017-11-12T09:38:28.223Z,6.36
2017-11-12T09:39:28.282Z,6.42
2017-11-12T09:41:21.273Z,6.36
2017-11-12T09:42:21.309Z,6.30
2017-11-12T09:44:14.294Z,6.42
2017-11-12T09:45:14.351Z,6.49
2017-11-12T09:47:07.352Z,6.56
2017-11-12T09:48:07.383Z,6.54
2017-11-12T09:50:00.364Z,6.56
2017-11-12T09:51:00.420Z,6.57
2017-11-12T09:52:53.419Z,6.48
2017-11-12T09:53:53.452Z,6.57
2017-11-12T09:55:46.471Z,6.63
2017-11-12T09:56:46.768Z,6.63
2017-11-12T09:58:39.484Z,6.67
2017-11-12T09:59:39.536Z,6.74
2017-11-12T10:01:32.534Z,6.77
2017-11-12T10:02:32.572Z,6.79
2017-11-12T10:04:25.555Z,6.79
2017-11-12T10:05:25.607Z,6.88
2017-11-12T10:07:18.625Z,6.89
2017-11-12T10:08:18.660Z,6.88
2017-11-12T10:10:11.638Z,6.85
2017-11-12T10:11:11.695Z,6.82
2017-11-12T10:13:04.694Z,6.85
2017-11-12T10:14:04.731Z,6.99
2017-11-12T10:15:57.735Z,7.00
2017-11-12T10:16:57.774Z,6.93
2017-11-12T10:18:50.754Z,6.88
2017-11-12T10:19:50.808Z,6.84
2017-11-12T10:21:43.805Z,6.88
2017-11-12T10:22:43.845Z,6.82
2017-11-12T10:24:36.819Z,6.77
2017-11-12T10:25:36.876Z,6.77
2017-11-12T10:27:29.876Z,6.77
2017-11-12T10:28:29.913Z,6.79
2017-11-12T10:30:22.938Z,6.69
2017-11-12T10:31:22.961Z,6.69
2017-11-12T10:33:15.933Z,6.64
2017-11-12T10:34:15.989Z,6.66
2017-11-12T10:36:08.990Z,6.57
2017-11-12T10:37:09.029Z,6.62
2017-11-12T10:39:02.003Z,6.66
2017-11-12T10:40:02.060Z,6.66
2017-11-12T10:41:55.055Z,6.51
2017-11-12T10:42:55.093Z,6.54
2017-11-12T10:44:48.070Z,6.56
2017-11-12T10:45:48.128Z,6.64
2017-11-12T10:47:41.166Z,6.57
2017-11-12T10:48:41.161Z,6.67
2017-11-12T10:50:34.158Z,6.64
2017-11-12T10:51:34.198Z,6.60
2017-11-12T10:53:27.176Z,6.77
2017-11-12T10:54:27.231Z,6.77
2017-11-12T10:56:20.240Z,6.87
2017-11-12T10:57:20.279Z,6.84
2017-11-12T10:59:13.258Z,6.97
2017-11-12T11:00:13.314Z,6.93
2017-11-12T11:02:06.325Z,6.87
2017-11-12T11:03:06.351Z,6.99
2017-11-12T11:04:59.328Z,6.97
2017-11-12T11:05:59.387Z,7.03
2017-11-12T11:07:52.388Z,7.00
2017-11-12T11:08:52.437Z,7.03
2017-11-12T11:10:45.421Z,7.00
2017-11-12T11:11:45.462Z,7.03
2017-11-12T11:13:38.440Z,7.05
2017-11-12T11:14:38.494Z,7.15
2017-11-12T11:16:31.494Z,7.14
2017-11-12T11:17:31.528Z,7.14
2017-11-12T11:19:24.514Z,7.17
2017-11-12T11:20:24.565Z,7.13
2017-11-12T11:22:17.569Z,7.15
2017-11-12T11:23:17.605Z,7.10
2017-11-12T11:25:10.580Z,7.15
2017-11-12T11:26:10.634Z,7.14
2017-11-12T11:28:03.634Z,6.99
2017-11-12T11:29:03.671Z,7.03
2017-11-12T11:30:56.666Z,6.99
2017-11-12T11:31:56.704Z,6.99
2017-11-12T11:33:49.690Z,7.06
2017-11-12T11:34:49.743Z,7.03
2017-11-12T11:36:42.742Z,7.18
2017-11-12T11:37:42.779Z,7.07
2017-11-12T11:39:35.757Z,7.14
2017-11-12T11:40:35.813Z,7.10
2017-11-12T11:42:28.819Z,7.17
2017-11-12T11:43:28.854Z,7.18
2017-11-12T11:45:21.840Z,7.18
2017-11-12T11:46:21.892Z,7.18
2017-11-12T11:48:14.891Z,7.10
2017-11-12T11:49:14.927Z,7.10
2017-11-12T11:51:07.991Z,7.18
2017-11-12T11:52:08.452Z,7.17
2017-11-12T11:54:01.486Z,7.32
2017-11-12T11:55:01.545Z,7.25
2017-11-12T11:56:54.544Z,7.31
2017-11-12T11:57:54.593Z,7.29
2017-11-12T11:59:47.571Z,7.23
2017-11-12T12:00:47.634Z,7.24
2017-11-12T12:02:40.664Z,7.13
2017-11-12T12:03:40.645Z,7.18
2017-11-12T12:05:33.643Z,7.15
2017-11-12T12:06:33.694Z,7.10
2017-11-12T12:08:26.667Z,7.11
2017-11-12T12:09:26.698Z,7.02
2017-11-12T12:11:19.699Z,7.20
2017-11-12T12:12:19.735Z,7.14
2017-11-12T12:14:12.736Z,7.21
2017-11-12T12:15:12.776Z,7.06
2017-11-12T12:17:05.775Z,7.13
2017-11-12T12:18:05.812Z,7.14
2017-11-12T12:19:58.807Z,7.10
2017-11-12T12:20:58.859Z,7.20
2017-11-12T12:22:51.861Z,7.18
2017-11-12T12:23:51.904Z,7.14
2017-11-12T12:25:44.885Z,7.17
2017-11-12T12:26:44.946Z,7.14
2017-11-12T12:28:38.196Z,7.29
2017-11-12T12:29:38.185Z,7.29
2017-11-12T12:31:31.763Z,7.39
2017-11-12T12:32:32.971Z,7.42
2017-11-12T12:34:24.515Z,7.48
2017-11-12T12:35:24.514Z,7.47
2017-11-12T12:37:18.347Z,7.57
2017-11-12T12:38:17.557Z,7.53
2017-11-12T12:40:11.137Z,7.63
2017-11-12T12:41:10.748Z,7.63
2017-11-12T12:43:03.744Z,7.67
2017-11-12T12:44:03.785Z,7.63
2017-11-12T12:45:56.769Z,7.50
2017-11-12T12:46:56.822Z,7.45
2017-11-12T12:48:49.960Z,7.39
2017-11-12T12:49:50.169Z,7.29
2017-11-12T12:51:43.528Z,7.28
2017-11-12T12:52:44.347Z,7.32
2017-11-12T12:55:36.730Z,7.28
2017-11-12T12:57:30.237Z,7.15
2017-11-12T12:58:30.272Z,6.97
2017-11-12T13:00:23.761Z,7.03
2017-11-12T13:01:23.816Z,7.02
2017-11-12T13:03:16.813Z,7.05
2017-11-12T13:04:16.850Z,7.03
2017-11-12T13:06:09.833Z,7.05
2017-11-12T13:07:09.888Z,7.06
2017-11-12T13:09:02.902Z,7.02
2017-11-12T13:10:02.926Z,7.03
2017-11-12T13:11:56.450Z,7.06
2017-11-12T13:12:56.486Z,6.97
2017-11-12T13:14:49.971Z,7.14
2017-11-12T13:15:50.029Z,7.14
2017-11-12T13:17:43.026Z,7.28
2017-11-12T13:18:43.060Z,7.23
2017-11-12T13:20:36.051Z,7.20
2017-11-12T13:21:36.097Z,7.15
2017-11-12T13:23:29.104Z,7.15
2017-11-12T13:24:29.152Z,7.15
2017-11-12T13:26:22.123Z,7.14
2017-11-12T13:27:22.179Z,7.23
2017-11-12T13:29:15.184Z,7.11
2017-11-12T13:30:15.277Z,7.10
2017-11-12T13:32:08.213Z,7.33
2017-11-12T13:33:08.249Z,7.31
2017-11-12T13:35:02.501Z,7.25
2017-11-12T13:36:02.524Z,7.33
2017-11-12T13:37:55.506Z,7.32
2017-11-12T13:38:55.544Z,7.31
2017-11-12T13:40:48.529Z,7.38
2017-11-12T13:41:48.581Z,7.45
2017-11-12T13:43:41.579Z,7.54
2017-11-12T13:44:41.617Z,7.50
2017-11-12T13:46:34.594Z,7.66
2017-11-12T13:47:34.749Z,7.56
2017-11-12T13:49:27.654Z,7.53
2017-11-12T13:50:27.693Z,7.50
2017-11-12T13:52:20.735Z,7.45
2017-11-12T13:53:20.732Z,7.36
2017-11-12T13:55:13.710Z,7.43
2017-11-12T13:56:13.769Z,7.36
2017-11-12T13:58:06.769Z,7.32
2017-11-12T13:59:06.803Z,7.40
2017-11-12T14:00:59.779Z,7.35
2017-11-12T14:01:59.839Z,7.48
2017-11-12T14:03:52.837Z,7.45
2017-11-12T14:04:52.874Z,7.40
2017-11-12T14:06:45.853Z,7.43
2017-11-12T14:07:45.911Z,7.39
2017-11-12T14:09:38.912Z,7.47
2017-11-12T14:10:38.948Z,7.40
2017-11-12T14:12:31.972Z,7.40
2017-11-12T14:13:31.984Z,7.36
2017-11-12T14:15:24.966Z,7.24
2017-11-12T14:16:25.021Z,7.25
2017-11-12T14:18:18.024Z,7.14
2017-11-12T14:19:18.062Z,7.15
2017-11-12T14:21:11.048Z,7.14
2017-11-12T14:22:11.102Z,7.18
2017-11-12T14:24:04.105Z,7.11
2017-11-12T14:25:04.140Z,7.11
2017-11-12T14:26:57.139Z,7.11
2017-11-12T14:27:57.173Z,7.17
2017-11-12T14:29:50.152Z,7.18
2017-11-12T14:30:50.210Z,7.00
2017-11-12T14:32:43.211Z,7.06
2017-11-12T14:33:43.245Z,7.06
2017-11-12T14:35:36.232Z,7.03
2017-11-12T14:36:36.286Z,7.00
2017-11-12T14:38:29.285Z,7.00
2017-11-12T14:39:29.323Z,7.05
2017-11-12T14:41:22.300Z,6.99
2017-11-12T14:42:22.359Z,6.95
2017-11-12T14:44:15.355Z,6.95
2017-11-12T14:45:15.399Z,6.93
2017-11-12T14:47:08.393Z,6.89
2017-11-12T14:48:08.434Z,6.89
2017-11-12T14:50:01.410Z,6.96
2017-11-12T14:51:01.467Z,6.92
2017-11-12T14:52:54.478Z,6.88
2017-11-12T14:53:54.508Z,6.84
2017-11-12T14:55:47.481Z,6.82
2017-11-12T14:56:47.537Z,6.85
2017-11-12T14:58:40.580Z,6.89
2017-11-12T14:59:40.599Z,6.85
2017-11-12T15:01:33.560Z,6.92
2017-11-12T15:02:33.616Z,6.79
2017-11-12T15:04:26.614Z,6.87
2017-11-12T15:05:26.759Z,6.81
2017-11-12T15:07:21.165Z,6.88
2017-11-12T15:08:21.199Z,6.88
2017-11-12T15:10:14.183Z,6.88
2017-11-12T15:11:14.239Z,6.84
2017-11-12T15:13:07.239Z,6.84
2017-11-12T15:14:07.282Z,6.84
2017-11-12T15:16:00.255Z,6.84
2017-11-12T15:17:00.313Z,6.89
2017-11-12T15:18:55.855Z,6.84
2017-11-12T15:19:55.858Z,6.89
2017-11-12T15:21:48.836Z,6.81
2017-11-12T15:22:48.892Z,6.82
2017-11-12T15:24:41.893Z,6.85
2017-11-12T15:25:41.926Z,6.82
2017-11-12T15:27:34.927Z,6.81
2017-11-12T15:28:34.961Z,6.79
2017-11-12T15:30:27.948Z,6.82
2017-11-12T15:31:28.009Z,6.79
2017-11-12T15:33:21.001Z,6.70
2017-11-12T15:34:21.039Z,6.78
2017-11-12T15:36:14.022Z,6.69
2017-11-12T15:37:14.077Z,6.74
2017-11-12T15:39:07.078Z,6.72
2017-11-12T15:40:07.127Z,6.77
2017-11-12T15:42:00.088Z,6.64
2017-11-12T15:43:00.154Z,6.63
2017-11-12T15:44:54.660Z,6.66
2017-11-12T15:45:54.691Z,6.70
2017-11-12T15:47:47.702Z,6.67
2017-11-12T15:48:47.728Z,6.67
2017-11-12T15:50:40.712Z,6.67
2017-11-12T15:51:40.763Z,6.62
2017-11-12T15:53:33.766Z,6.64
2017-11-12T15:54:33.801Z,6.59
2017-11-12T15:56:27.288Z,6.64
2017-11-12T15:57:27.346Z,6.59
2017-11-12T15:59:20.367Z,6.56
2017-11-12T16:00:20.384Z,6.56
2017-11-12T16:02:13.360Z,6.63
2017-11-12T16:03:13.419Z,6.64
2017-11-12T16:05:06.419Z,6.51
2017-11-12T16:06:06.456Z,6.57
2017-11-12T16:07:59.453Z,6.57
2017-11-12T16:08:59.485Z,6.56
2017-11-12T16:10:52.974Z,6.54
2017-11-12T16:11:53.028Z,6.62
2017-11-12T16:13:48.535Z,6.62
2017-11-12T16:14:48.574Z,6.54
2017-11-12T16:16:42.058Z,6.57
2017-11-12T16:17:42.116Z,6.59
2017-11-12T16:19:35.115Z,6.57
2017-11-12T16:20:35.176Z,6.45
2017-11-12T16:22:28.130Z,6.56
2017-11-12T16:23:28.193Z,6.56
2017-11-12T16:25:21.214Z,6.54
2017-11-12T16:26:21.251Z,6.51
2017-11-12T16:28:14.240Z,6.51
2017-11-12T16:29:14.308Z,6.60
2017-11-12T16:31:07.264Z,6.54
2017-11-12T16:32:07.325Z,6.46
2017-11-12T16:34:00.482Z,6.46
2017-11-12T16:35:00.368Z,6.44
2017-11-12T16:36:53.353Z,6.31
2017-11-12T16:37:53.410Z,6.36
2017-11-12T16:39:46.414Z,6.30
2017-11-12T16:40:46.452Z,6.27
2017-11-12T16:42:39.437Z,6.22
2017-11-12T16:43:39.496Z,6.30
2017-11-12T16:45:32.511Z,6.20
2017-11-12T16:46:32.567Z,6.17
2017-11-12T16:48:25.543Z,6.20
2017-11-12T16:49:25.580Z,6.16
2017-11-12T16:51:18.576Z,6.26
2017-11-12T16:52:18.641Z,6.17
2017-11-12T16:54:11.643Z,6.14
2017-11-12T16:55:11.672Z,6.09
2017-11-12T16:57:04.655Z,6.14
2017-11-12T16:58:04.713Z,6.12
2017-11-12T16:59:57.712Z,6.12
2017-11-12T17:00:57.746Z,6.11
2017-11-12T17:02:50.733Z,6.09
2017-11-12T17:03:50.783Z,6.07
2017-11-12T17:05:43.787Z,6.07
2017-11-12T17:06:43.816Z,6.09
2017-11-12T17:08:36.812Z,6.01
2017-11-12T17:09:36.849Z,6.02
2017-11-12T17:11:29.842Z,6.01
2017-11-12T17:12:29.893Z,5.90
2017-11-12T17:14:22.900Z,5.98
2017-11-12T17:15:22.934Z,5.87
2017-11-12T17:17:15.921Z,5.83
2017-11-12T17:18:15.977Z,5.87
2017-11-12T17:20:08.979Z,5.79
2017-11-12T17:21:09.014Z,5.82
2017-11-12T17:23:02.000Z,5.72
2017-11-12T17:24:02.048Z,5.75
2017-11-12T17:25:55.061Z,5.73
2017-11-12T17:26:55.099Z,5.69
2017-11-12T17:28:48.097Z,5.79
2017-11-12T17:29:48.133Z,5.73
2017-11-12T17:31:41.116Z,5.86
2017-11-12T17:32:41.171Z,5.83
2017-11-12T17:34:34.180Z,5.90
2017-11-12T17:35:34.208Z,5.87
2017-11-12T17:37:27.188Z,5.94
2017-11-12T17:38:27.245Z,5.87
2017-11-12T17:40:20.246Z,6.01
2017-11-12T17:41:20.286Z,5.91
2017-11-12T17:43:13.264Z,5.93
2017-11-12T17:44:13.319Z,5.91
2017-11-12T17:46:06.323Z,6.02
2017-11-12T17:47:06.362Z,5.97
2017-11-12T17:48:59.368Z,6.07
2017-11-12T17:49:59.402Z,6.04
2017-11-12T17:51:52.385Z,6.07
2017-11-12T17:52:52.434Z,6.09
2017-11-12T17:54:45.431Z,6.07
2017-11-12T17:55:45.473Z,6.08
2017-11-12T17:57:38.450Z,6.05
2017-11-12T17:58:38.506Z,6.08
2017-11-12T18:00:33.471Z,6.08
2017-11-12T18:01:33.374Z,6.04
2017-11-12T18:03:26.836Z,6.07
2017-11-12T18:04:27.680Z,6.11
2017-11-12T18:06:18.544Z,6.01
2017-11-12T18:07:18.569Z,6.12
2017-11-12T18:09:11.567Z,6.09
2017-11-12T18:10:11.614Z,6.04
2017-11-12T18:12:04.586Z,6.09
2017-11-12T18:13:04.644Z,6.08
2017-11-12T18:14:57.646Z,6.22
2017-11-12T18:15:59.608Z,6.17
2017-11-12T18:17:56.379Z,6.16
2017-11-12T18:18:52.927Z,6.12
2017-11-12T18:20:48.838Z,6.20
2017-11-12T18:21:48.152Z,6.20
2017-11-12T18:23:41.797Z,6.14
2017-11-12T18:24:40.800Z,6.30
2017-11-12T18:26:35.557Z,6.26
2017-11-12T18:27:34.443Z,6.19
2017-11-12T18:29:27.447Z,6.22
2017-11-12T18:30:27.822Z,6.22
2017-11-12T18:32:20.463Z,6.19
2017-11-12T18:33:20.649Z,6.24
2017-11-12T18:35:14.028Z,6.27
2017-11-12T18:36:14.059Z,6.19
2017-11-12T18:38:07.040Z,6.26
2017-11-12T18:39:07.097Z,6.28
2017-11-12T18:41:00.095Z,6.27
2017-11-12T18:42:00.131Z,6.28
2017-11-12T18:43:53.135Z,6.38
2017-11-12T18:44:53.182Z,6.35
2017-11-12T18:46:46.166Z,6.31
2017-11-12T18:47:46.223Z,6.35
2017-11-12T18:49:39.230Z,6.33
2017-11-12T18:50:39.269Z,6.30
2017-11-12T18:52:32.253Z,6.28
2017-11-12T18:53:32.306Z,6.27
2017-11-12T18:55:25.816Z,6.30
2017-11-12T18:56:25.850Z,6.31
2017-11-12T18:58:18.849Z,6.30
2017-11-12T18:59:18.886Z,6.35
2017-11-12T19:01:11.931Z,6.33
2017-11-12T19:02:11.920Z,6.31
2017-11-12T19:04:04.930Z,6.38
2017-11-12T19:05:04.968Z,6.35
2017-11-12T19:06:57.984Z,6.33
2017-11-12T19:07:58.004Z,6.36
2017-11-12T19:09:51.093Z,6.36
2017-11-12T19:10:51.131Z,6.33
2017-11-12T19:12:44.125Z,6.39
2017-11-12T19:13:44.176Z,6.39